Songa Opal — V7RO5 — position and weather

sailwx.info

Track history (hours):
 
Tides and Currents Weather Stations Pressure Air Temp Water Temp Dewpoint Dewpoint Depression Visibility Wind Speed Wind Dir Waves Ship Positions

Songa Opal

Last reported at 2015-Apr-13 23:05 UTC. Time now 2015-May-23 13:23 UTC.
Position N 30°07' W 123°26'.
Warning: this ship's position is 39 days out of date.

Length 144 m; draft 9.7 m.

Type: Ship. MMSI: 538003550.

Date/timePositionNaut miles runAvg speedWind from/ knotsBaromVisibWave heightAir tempDewpointWater temp
2015-Apr-13 23:05N 30°07' W 123°26'  
2015-Apr-09 23:33N 47°31' W 127°47'1411.3
2015-Apr-09 22:21N 47°39' W 127°30'911.3
2015-Apr-09 21:32N 47°43' W 127°18'1111.1
2015-Apr-09 20:33N 47°49' W 127°04'1411.5
2015-Apr-09 19:22N 47°56' W 126°47'911.7
2015-Apr-09 18:33N 48°00' W 126°34'1211.6
2015-Apr-09 17:33N 48°06' W 126°19'10 9.7
2015-Apr-09 16:33N 48°11' W 126°07'6 5.6
2015-Apr-09 15:33N 48°14' W 125°60'1010.1
2015-Apr-09 14:33N 48°18' W 125°46'1312.5
2015-Apr-09 13:33N 48°25' W 125°30'1212.0
2015-Apr-09 12:33N 48°32' W 125°15'1212.1
2015-Apr-09 11:33N 48°31' W 124°57'1212.4
2015-Apr-09 10:33N 48°29' W 124°38'1312.8
2015-Apr-09 09:33N 48°24' W 124°21'1312.9
2015-Apr-09 08:33N 48°19' W 124°03'1313.1
2015-Apr-09 07:33N 48°17' W 123°43'1211.5
2015-Apr-09 06:32N 48°20' W 123°27'7 7.4
2015-Apr-09 05:33N 48°23' W 123°17'1211.9
2015-Apr-09 04:33N 48°35' W 123°14'1010.0
2015-Apr-09 03:33N 48°44' W 123°08'9 8.7
2015-Apr-09 02:33N 48°53' W 123°07'1312.9
2015-Apr-09 01:33N 49°02' W 123°21'1211.9
2015-Apr-09 00:33N 49°14' W 123°20'9 9.4
2015-Apr-08 23:34N 49°18' W 123°07'2 2.2
2015-Apr-08 22:32N 49°17' W 123°04'0 0.0
2015-Apr-08 21:32N 49°17' W 123°04'0 0.0
2015-Apr-08 20:32N 49°17' W 123°04'0 0.0
2015-Apr-08 19:32N 49°17' W 123°04'0 0.0
2015-Apr-08 18:26N 49°17' W 123°04'0 0.0
2015-Apr-08 17:32N 49°17' W 123°04'0 0.0
2015-Apr-08 16:32N 49°17' W 123°04'0 0.0
2015-Apr-08 15:32N 49°17' W 123°04'0 0.0
2015-Apr-08 14:32N 49°17' W 123°04'0 0.0
2015-Apr-08 13:32N 49°17' W 123°04'0 0.0
2015-Apr-08 12:32N 49°17' W 123°04'0 0.0
2015-Apr-08 11:32N 49°17' W 123°04'0 0.0
2015-Apr-08 10:32N 49°17' W 123°04'0 0.0
2015-Apr-08 09:32N 49°17' W 123°04'0 0.0
2015-Apr-08 08:32N 49°17' W 123°04'0 0.0
2015-Apr-08 07:32N 49°17' W 123°04'0 0.0
2015-Apr-08 06:32N 49°17' W 123°04'0 0.0
2015-Apr-08 05:32N 49°17' W 123°04'0 0.0
2015-Apr-08 04:32N 49°17' W 123°04'0 0.0
2015-Apr-08 03:32N 49°17' W 123°04'0 0.0
2015-Apr-08 02:32N 49°17' W 123°04'0 0.0
2015-Apr-08 01:32N 49°17' W 123°04'0 0.0
2015-Apr-08 00:32N 49°17' W 123°04'0 0.0
2015-Apr-07 23:32N 49°17' W 123°04'0 0.2
2015-Apr-07 22:33N 49°18' W 123°04'6 6.0
2015-Apr-07 21:33N 49°18' W 122°55'2 1.8
2015-Apr-07 20:33N 49°17' W 122°52'0 0.0
2015-Apr-07 19:24N 49°17' W 122°52'0 0.0
2015-Apr-07 18:33N 49°17' W 122°52'0 0.0
2015-Apr-07 17:33N 49°17' W 122°52'0 0.0
2015-Apr-07 16:33N 49°17' W 122°52'0 0.0
2015-Apr-07 15:33N 49°17' W 122°52'0 0.0
2015-Apr-07 14:33N 49°17' W 122°52'0 0.0
2015-Apr-07 13:33N 49°17' W 122°52'0 0.0
2015-Apr-07 12:33N 49°17' W 122°52'0 0.0
2015-Apr-07 11:33N 49°17' W 122°52'0 0.0
2015-Apr-07 10:33N 49°17' W 122°52'0 0.0
2015-Apr-07 09:30N 49°17' W 122°52'0 0.0
2015-Apr-07 08:33N 49°17' W 122°52'0 0.0
2015-Apr-07 07:27N 49°17' W 122°52'0 0.0
2015-Apr-07 06:27N 49°17' W 122°52'0 0.0
2015-Apr-07 05:27N 49°17' W 122°52'0 0.0
2015-Apr-07 04:33N 49°17' W 122°52'0 0.0
2015-Apr-07 03:30N 49°17' W 122°52'0 0.0
2015-Apr-07 02:33N 49°17' W 122°52'0 0.0
2015-Apr-07 01:33N 49°17' W 122°52'0 0.0
2015-Apr-07 00:24N 49°17' W 122°52'0 0.0
2015-Apr-06 23:24N 49°17' W 122°52'0 0.3
2015-Apr-06 22:33N 49°18' W 122°52'6 5.7
2015-Apr-06 21:33N 49°18' W 123°01'6 6.4
2015-Apr-06 20:33N 49°19' W 123°11'2 2.4
2015-Apr-06 19:33N 49°18' W 123°14'4 4.3
2015-Apr-06 18:33N 49°15' W 123°18'1212.5
2015-Apr-06 17:33N 49°02' W 123°18'1313.1
2015-Apr-06 16:34N 48°52' W 123°05'9 9.3
2015-Apr-06 15:33N 48°44' W 123°09'1110.9
2015-Apr-06 14:33N 48°33' W 123°12'1211.7
2015-Apr-06 13:34N 48°22' W 123°19'7 6.8
2015-Apr-06 12:33N 48°17' W 123°25'6 5.7
2015-Apr-06 11:33N 48°13' W 123°32'10 9.5
2015-Apr-06 10:33N 48°13' W 123°46'1211.7
2015-Apr-06 09:33N 48°16' W 124°03'1313.4
2015-Apr-06 08:33N 48°22' W 124°22'1312.8
2015-Apr-06 07:33N 48°27' W 124°39'1313.3
2015-Apr-06 06:33N 48°29' W 124°59'1413.3
2015-Apr-06 05:31N 48°28' W 125°20'1313.8
2015-Apr-06 04:33N 48°27' W 125°40'1413.9
2015-Apr-06 03:33N 48°26' W 126°01'2014.4
2015-Apr-06 02:12N 48°25' W 126°30'11 1.4
2015-Apr-05 18:23N 48°31' W 126°44'1113.1
2015-Apr-05 17:33N 48°31' W 126°27'1312.8
2015-Apr-05 16:33N 48°31' W 126°08'1313.4
2015-Apr-05 15:33N 48°31' W 125°48'1413.5
2015-Apr-05 14:34N 48°31' W 125°28'1413.8
2015-Apr-05 13:33N 48°31' W 125°07'1414.0
2015-Apr-05 12:33N 48°31' W 124°46'1413.5
2015-Apr-05 11:33N 48°26' W 124°26'1313.0
2015-Apr-05 10:33N 48°21' W 124°08'1313.1
2015-Apr-05 09:32N 48°17' W 123°49'1313.2
2015-Apr-05 08:33N 48°16' W 123°30'1010.4
2015-Apr-05 07:33N 48°23' W 123°18'1312.8
2015-Apr-05 06:34N 48°36' W 123°14'1312.8
2015-Apr-05 05:33N 48°46' W 123°03'1312.9
2015-Apr-05 04:33N 48°57' W 123°13'1313.3
2015-Apr-05 03:33N 49°09' W 123°23'1312.6
2015-Apr-05 02:33N 49°19' W 123°11'7 6.9
2015-Apr-05 01:34N 49°18' W 123°01'0 0.0
2015-Apr-05 00:34N 49°18' W 123°01'0 0.0
2015-Apr-04 23:34N 49°18' W 123°01'0 0.0
2015-Apr-04 22:31N 49°18' W 123°01'0 0.0
2015-Apr-04 21:33N 49°18' W 123°01'0 0.0
2015-Apr-04 20:33N 49°18' W 123°01'0 0.0
2015-Apr-04 19:34N 49°18' W 123°01'0 0.0
2015-Apr-04 18:34N 49°18' W 123°01'0 0.0
2015-Apr-04 17:34N 49°18' W 123°01'0 0.0
2015-Apr-04 16:34N 49°18' W 123°01'0 0.0
2015-Apr-04 15:33N 49°18' W 123°01'0 0.0
2015-Apr-04 14:34N 49°18' W 123°01'0 0.0
2015-Apr-04 13:34N 49°18' W 123°01'0 0.0
2015-Apr-04 12:33N 49°18' W 123°01'0 0.0
2015-Apr-04 11:34N 49°18' W 123°01'0 0.0
2015-Apr-04 10:34N 49°18' W 123°01'0 0.0
2015-Apr-04 09:34N 49°18' W 123°01'0 0.0
2015-Apr-04 08:34N 49°18' W 123°01'0 0.0
2015-Apr-04 07:34N 49°18' W 123°01'0 0.0
2015-Apr-04 06:30N 49°18' W 123°01'0 0.0
2015-Apr-04 05:30N 49°18' W 123°01'0 0.0
2015-Apr-04 04:34N 49°18' W 123°01'0 0.0
2015-Apr-04 03:30N 49°18' W 123°01'0 0.0
2015-Apr-04 02:33N 49°18' W 123°01'1 1.0
2015-Apr-04 01:34N 49°18' W 123°02'3 3.3
2015-Apr-04 00:34N 49°19' W 123°07'0 0.0
2015-Apr-03 23:33N 49°19' W 123°07'  
Track history (hours):
 
Tides and Currents Weather Stations Pressure Air Temp Water Temp Dewpoint Dewpoint Depression Visibility Wind Speed Wind Dir Waves Ship Positions

Songa Opal

Last reported at 2015-Apr-13 23:05 UTC. Time now 2015-May-23 13:23 UTC.
Position N 30°07' W 123°26'.
Warning: this ship's position is 39 days out of date.

Length 144 m; draft 9.7 m.

Type: Ship. MMSI: 538003550.

Date/timePositionNaut miles runAvg speedWind from/ knotsBaromVisibWave heightAir tempDewpointWater temp
2015-Apr-13 23:05N 30°07' W 123°26'  
2015-Apr-09 23:33N 47°31' W 127°47'1411.3
2015-Apr-09 22:21N 47°39' W 127°30'911.3
2015-Apr-09 21:32N 47°43' W 127°18'1111.1
2015-Apr-09 20:33N 47°49' W 127°04'1411.5
2015-Apr-09 19:22N 47°56' W 126°47'911.7
2015-Apr-09 18:33N 48°00' W 126°34'1211.6
2015-Apr-09 17:33N 48°06' W 126°19'10 9.7
2015-Apr-09 16:33N 48°11' W 126°07'6 5.6
2015-Apr-09 15:33N 48°14' W 125°60'1010.1
2015-Apr-09 14:33N 48°18' W 125°46'1312.5
2015-Apr-09 13:33N 48°25' W 125°30'1212.0
2015-Apr-09 12:33N 48°32' W 125°15'1212.1
2015-Apr-09 11:33N 48°31' W 124°57'1212.4
2015-Apr-09 10:33N 48°29' W 124°38'1312.8
2015-Apr-09 09:33N 48°24' W 124°21'1312.9
2015-Apr-09 08:33N 48°19' W 124°03'1313.1
2015-Apr-09 07:33N 48°17' W 123°43'1211.5
2015-Apr-09 06:32N 48°20' W 123°27'7 7.4
2015-Apr-09 05:33N 48°23' W 123°17'1211.9
2015-Apr-09 04:33N 48°35' W 123°14'1010.0
2015-Apr-09 03:33N 48°44' W 123°08'9 8.7
2015-Apr-09 02:33N 48°53' W 123°07'1312.9
2015-Apr-09 01:33N 49°02' W 123°21'1211.9
2015-Apr-09 00:33N 49°14' W 123°20'9 9.4
2015-Apr-08 23:34N 49°18' W 123°07'2 2.2
2015-Apr-08 22:32N 49°17' W 123°04'0 0.0
2015-Apr-08 21:32N 49°17' W 123°04'0 0.0
2015-Apr-08 20:32N 49°17' W 123°04'0 0.0
2015-Apr-08 19:32N 49°17' W 123°04'0 0.0
2015-Apr-08 18:26N 49°17' W 123°04'0 0.0
2015-Apr-08 17:32N 49°17' W 123°04'0 0.0
2015-Apr-08 16:32N 49°17' W 123°04'0 0.0
2015-Apr-08 15:32N 49°17' W 123°04'0 0.0
2015-Apr-08 14:32N 49°17' W 123°04'0 0.0
2015-Apr-08 13:32N 49°17' W 123°04'0 0.0
2015-Apr-08 12:32N 49°17' W 123°04'0 0.0
2015-Apr-08 11:32N 49°17' W 123°04'0 0.0
2015-Apr-08 10:32N 49°17' W 123°04'0 0.0
2015-Apr-08 09:32N 49°17' W 123°04'0 0.0
2015-Apr-08 08:32N 49°17' W 123°04'0 0.0
2015-Apr-08 07:32N 49°17' W 123°04'0 0.0
2015-Apr-08 06:32N 49°17' W 123°04'0 0.0
2015-Apr-08 05:32N 49°17' W 123°04'0 0.0
2015-Apr-08 04:32N 49°17' W 123°04'0 0.0
2015-Apr-08 03:32N 49°17' W 123°04'0 0.0
2015-Apr-08 02:32N 49°17' W 123°04'0 0.0
2015-Apr-08 01:32N 49°17' W 123°04'0 0.0
2015-Apr-08 00:32N 49°17' W 123°04'0 0.0
2015-Apr-07 23:32N 49°17' W 123°04'0 0.2
2015-Apr-07 22:33N 49°18' W 123°04'6 6.0
2015-Apr-07 21:33N 49°18' W 122°55'2 1.8
2015-Apr-07 20:33N 49°17' W 122°52'0 0.0
2015-Apr-07 19:24N 49°17' W 122°52'0 0.0
2015-Apr-07 18:33N 49°17' W 122°52'0 0.0
2015-Apr-07 17:33N 49°17' W 122°52'0 0.0
2015-Apr-07 16:33N 49°17' W 122°52'0 0.0
2015-Apr-07 15:33N 49°17' W 122°52'0 0.0
2015-Apr-07 14:33N 49°17' W 122°52'0 0.0
2015-Apr-07 13:33N 49°17' W 122°52'0 0.0
2015-Apr-07 12:33N 49°17' W 122°52'0 0.0
2015-Apr-07 11:33N 49°17' W 122°52'0 0.0
2015-Apr-07 10:33N 49°17' W 122°52'0 0.0
2015-Apr-07 09:30N 49°17' W 122°52'0 0.0
2015-Apr-07 08:33N 49°17' W 122°52'0 0.0
2015-Apr-07 07:27N 49°17' W 122°52'0 0.0
2015-Apr-07 06:27N 49°17' W 122°52'0 0.0
2015-Apr-07 05:27N 49°17' W 122°52'0 0.0
2015-Apr-07 04:33N 49°17' W 122°52'0 0.0
2015-Apr-07 03:30N 49°17' W 122°52'0 0.0
2015-Apr-07 02:33N 49°17' W 122°52'0 0.0
2015-Apr-07 01:33N 49°17' W 122°52'0 0.0
2015-Apr-07 00:24N 49°17' W 122°52'0 0.0
2015-Apr-06 23:24N 49°17' W 122°52'0 0.3
2015-Apr-06 22:33N 49°18' W 122°52'6 5.7
2015-Apr-06 21:33N 49°18' W 123°01'6 6.4
2015-Apr-06 20:33N 49°19' W 123°11'2 2.4
2015-Apr-06 19:33N 49°18' W 123°14'4 4.3
2015-Apr-06 18:33N 49°15' W 123°18'1212.5
2015-Apr-06 17:33N 49°02' W 123°18'1313.1
2015-Apr-06 16:34N 48°52' W 123°05'9 9.3
2015-Apr-06 15:33N 48°44' W 123°09'1110.9
2015-Apr-06 14:33N 48°33' W 123°12'1211.7
2015-Apr-06 13:34N 48°22' W 123°19'7 6.8
2015-Apr-06 12:33N 48°17' W 123°25'6 5.7
2015-Apr-06 11:33N 48°13' W 123°32'10 9.5
2015-Apr-06 10:33N 48°13' W 123°46'1211.7
2015-Apr-06 09:33N 48°16' W 124°03'1313.4
2015-Apr-06 08:33N 48°22' W 124°22'1312.8
2015-Apr-06 07:33N 48°27' W 124°39'1313.3
2015-Apr-06 06:33N 48°29' W 124°59'1413.3
2015-Apr-06 05:31N 48°28' W 125°20'1313.8
2015-Apr-06 04:33N 48°27' W 125°40'1413.9
2015-Apr-06 03:33N 48°26' W 126°01'2014.4
2015-Apr-06 02:12N 48°25' W 126°30'11 1.4
2015-Apr-05 18:23N 48°31' W 126°44'1113.1
2015-Apr-05 17:33N 48°31' W 126°27'1312.8
2015-Apr-05 16:33N 48°31' W 126°08'1313.4
2015-Apr-05 15:33N 48°31' W 125°48'1413.5
2015-Apr-05 14:34N 48°31' W 125°28'1413.8
2015-Apr-05 13:33N 48°31' W 125°07'1414.0
2015-Apr-05 12:33N 48°31' W 124°46'1413.5
2015-Apr-05 11:33N 48°26' W 124°26'1313.0
2015-Apr-05 10:33N 48°21' W 124°08'1313.1
2015-Apr-05 09:32N 48°17' W 123°49'1313.2
2015-Apr-05 08:33N 48°16' W 123°30'1010.4
2015-Apr-05 07:33N 48°23' W 123°18'1312.8
2015-Apr-05 06:34N 48°36' W 123°14'1312.8
2015-Apr-05 05:33N 48°46' W 123°03'1312.9
2015-Apr-05 04:33N 48°57' W 123°13'1313.3
2015-Apr-05 03:33N 49°09' W 123°23'1312.6
2015-Apr-05 02:33N 49°19' W 123°11'7 6.9
2015-Apr-05 01:34N 49°18' W 123°01'0 0.0
2015-Apr-05 00:34N 49°18' W 123°01'0 0.0
2015-Apr-04 23:34N 49°18' W 123°01'0 0.0
2015-Apr-04 22:31N 49°18' W 123°01'0 0.0
2015-Apr-04 21:33N 49°18' W 123°01'0 0.0
2015-Apr-04 20:33N 49°18' W 123°01'0 0.0
2015-Apr-04 19:34N 49°18' W 123°01'0 0.0
2015-Apr-04 18:34N 49°18' W 123°01'0 0.0
2015-Apr-04 17:34N 49°18' W 123°01'0 0.0
2015-Apr-04 16:34N 49°18' W 123°01'0 0.0
2015-Apr-04 15:33N 49°18' W 123°01'0 0.0
2015-Apr-04 14:34N 49°18' W 123°01'0 0.0
2015-Apr-04 13:34N 49°18' W 123°01'0 0.0
2015-Apr-04 12:33N 49°18' W 123°01'0 0.0
2015-Apr-04 11:34N 49°18' W 123°01'0 0.0
2015-Apr-04 10:34N 49°18' W 123°01'0 0.0
2015-Apr-04 09:34N 49°18' W 123°01'0 0.0
2015-Apr-04 08:34N 49°18' W 123°01'0 0.0
2015-Apr-04 07:34N 49°18' W 123°01'0 0.0
2015-Apr-04 06:30N 49°18' W 123°01'0 0.0
2015-Apr-04 05:30N 49°18' W 123°01'0 0.0
2015-Apr-04 04:34N 49°18' W 123°01'0 0.0
2015-Apr-04 03:30N 49°18' W 123°01'0 0.0
2015-Apr-04 02:33N 49°18' W 123°01'1 1.0
2015-Apr-04 01:34N 49°18' W 123°02'3 3.3
2015-Apr-04 00:34N 49°19' W 123°07'0 0.0
2015-Apr-03 23:33N 49°19' W 123°07'  

Dump ship's entire track history